sensor_id;sensor_type;location;lat;lon;timestamp;pressure;altitude;pressure_sealevel;temperature;humidity
77124;BME280;66079;47.646;19.130;2023-03-03T00:02:09;100626.16;;;2.42;75.94
77124;BME280;66079;47.646;19.130;2023-03-03T00:05:12;100623.88;;;2.39;75.64
77124;BME280;66079;47.646;19.130;2023-03-03T00:08:18;100625.47;;;2.40;75.31
77124;BME280;66079;47.646;19.130;2023-03-03T00:11:20;100624.59;;;2.31;74.99
77124;BME280;66079;47.646;19.130;2023-03-03T00:14:28;100630.75;;;2.38;75.46
77124;BME280;66079;47.646;19.130;2023-03-03T00:17:31;100634.38;;;2.18;76.14
77124;BME280;66079;47.646;19.130;2023-03-03T00:20:37;100620.34;;;2.13;75.64
77124;BME280;66079;47.646;19.130;2023-03-03T00:23:40;100639.84;;;2.23;75.81
77124;BME280;66079;47.646;19.130;2023-03-03T00:26:55;100630.19;;;2.17;75.91
77124;BME280;66079;47.646;19.130;2023-03-03T00:29:59;100628.47;;;2.08;76.18
77124;BME280;66079;47.646;19.130;2023-03-03T00:33:18;100629.00;;;2.12;75.94
77124;BME280;66079;47.646;19.130;2023-03-03T00:36:29;100628.72;;;2.05;75.98
77124;BME280;66079;47.646;19.130;2023-03-03T00:39:37;100612.47;;;1.97;77.01
77124;BME280;66079;47.646;19.130;2023-03-03T00:42:43;100603.28;;;1.94;77.09
77124;BME280;66079;47.646;19.130;2023-03-03T00:45:50;100604.63;;;1.98;76.92
77124;BME280;66079;47.646;19.130;2023-03-03T00:48:53;100609.59;;;2.00;76.85
77124;BME280;66079;47.646;19.130;2023-03-03T00:51:56;100619.03;;;1.99;76.41
77124;BME280;66079;47.646;19.130;2023-03-03T00:54:58;100615.69;;;1.89;76.29
77124;BME280;66079;47.646;19.130;2023-03-03T00:58:02;100619.91;;;1.90;76.56
77124;BME280;66079;47.646;19.130;2023-03-03T01:01:09;100611.28;;;1.82;76.55
77124;BME280;66079;47.646;19.130;2023-03-03T01:04:18;100605.47;;;1.80;76.73
77124;BME280;66079;47.646;19.130;2023-03-03T01:07:20;100600.50;;;1.78;76.79
77124;BME280;66079;47.646;19.130;2023-03-03T01:10:23;100594.56;;;1.78;77.04
77124;BME280;66079;47.646;19.130;2023-03-03T01:13:30;100593.00;;;1.67;76.80
77124;BME280;66079;47.646;19.130;2023-03-03T01:16:33;100597.84;;;1.70;76.86
77124;BME280;66079;47.646;19.130;2023-03-03T01:19:36;100586.78;;;1.60;76.71
77124;BME280;66079;47.646;19.130;2023-03-03T01:22:39;100596.22;;;1.60;77.25
77124;BME280;66079;47.646;19.130;2023-03-03T01:25:43;100594.47;;;1.60;77.18
77124;BME280;66079;47.646;19.130;2023-03-03T01:28:46;100584.41;;;1.49;76.90
77124;BME280;66079;47.646;19.130;2023-03-03T01:31:50;100596.25;;;1.50;77.16
77124;BME280;66079;47.646;19.130;2023-03-03T01:34:53;100590.16;;;1.51;77.54
77124;BME280;66079;47.646;19.130;2023-03-03T01:37:56;100575.66;;;1.42;77.83
77124;BME280;66079;47.646;19.130;2023-03-03T01:40:59;100581.31;;;1.46;78.19
77124;BME280;66079;47.646;19.130;2023-03-03T01:44:02;100569.34;;;1.27;77.88
77124;BME280;66079;47.646;19.130;2023-03-03T01:47:17;100582.91;;;1.47;77.40
77124;BME280;66079;47.646;19.130;2023-03-03T01:50:55;100593.00;;;1.48;77.01
77124;BME280;66079;47.646;19.130;2023-03-03T01:54:05;100584.53;;;1.48;77.28
77124;BME280;66079;47.646;19.130;2023-03-03T01:57:15;100585.06;;;1.42;76.80
77124;BME280;66079;47.646;19.130;2023-03-03T02:00:19;100572.84;;;1.26;76.72
77124;BME280;66079;47.646;19.130;2023-03-03T02:03:22;100578.38;;;1.31;76.88
77124;BME280;66079;47.646;19.130;2023-03-03T02:06:30;100585.09;;;1.32;77.11
77124;BME280;66079;47.646;19.130;2023-03-03T02:10:04;100589.13;;;1.25;77.28
77124;BME280;66079;47.646;19.130;2023-03-03T02:13:07;100586.84;;;1.22;77.60
77124;BME280;66079;47.646;19.130;2023-03-03T02:16:10;100575.81;;;1.21;77.32
77124;BME280;66079;47.646;19.130;2023-03-03T02:19:23;100566.50;;;1.20;77.02
77124;BME280;66079;47.646;19.130;2023-03-03T02:22:52;100575.00;;;1.21;77.02
77124;BME280;66079;47.646;19.130;2023-03-03T02:29:03;100570.44;;;1.24;76.75
77124;BME280;66079;47.646;19.130;2023-03-03T02:32:06;100569.50;;;1.16;76.86
77124;BME280;66079;47.646;19.130;2023-03-03T02:44:50;100565.84;;;1.09;76.87
77124;BME280;66079;47.646;19.130;2023-03-03T02:47:53;100550.91;;;0.95;77.02
77124;BME280;66079;47.646;19.130;2023-03-03T02:50:56;100559.53;;;1.03;76.69
77124;BME280;66079;47.646;19.130;2023-03-03T02:53:58;100544.19;;;1.03;77.05
77124;BME280;66079;47.646;19.130;2023-03-03T02:57:04;100554.66;;;1.00;77.11
77124;BME280;66079;47.646;19.130;2023-03-03T03:00:07;100562.34;;;1.00;76.68
77124;BME280;66079;47.646;19.130;2023-03-03T03:03:09;100548.63;;;0.73;77.51
77124;BME280;66079;47.646;19.130;2023-03-03T03:06:13;100556.41;;;0.71;77.58
77124;BME280;66079;47.646;19.130;2023-03-03T03:09:18;100554.69;;;0.72;77.90
77124;BME280;66079;47.646;19.130;2023-03-03T03:12:23;100542.94;;;0.69;77.67
77124;BME280;66079;47.646;19.130;2023-03-03T03:15:28;100532.72;;;0.69;77.22
77124;BME280;66079;47.646;19.130;2023-03-03T03:18:31;100538.66;;;0.70;77.58
77124;BME280;66079;47.646;19.130;2023-03-03T03:21:34;100535.41;;;0.68;77.72
77124;BME280;66079;47.646;19.130;2023-03-03T03:24:38;100532.84;;;0.77;77.44
77124;BME280;66079;47.646;19.130;2023-03-03T03:27:43;100534.91;;;0.74;77.40
77124;BME280;66079;47.646;19.130;2023-03-03T03:30:49;100535.00;;;0.72;77.21
77124;BME280;66079;47.646;19.130;2023-03-03T03:33:53;100533.41;;;0.62;77.52
77124;BME280;66079;47.646;19.130;2023-03-03T03:36:56;100546.06;;;0.73;77.69
77124;BME280;66079;47.646;19.130;2023-03-03T03:40:01;100518.88;;;0.72;77.25
77124;BME280;66079;47.646;19.130;2023-03-03T03:43:04;100528.97;;;0.83;77.55
77124;BME280;66079;47.646;19.130;2023-03-03T03:46:07;100524.25;;;0.69;78.12
77124;BME280;66079;47.646;19.130;2023-03-03T03:49:10;100509.84;;;0.68;77.93
77124;BME280;66079;47.646;19.130;2023-03-03T03:52:13;100530.56;;;0.84;77.89
77124;BME280;66079;47.646;19.130;2023-03-03T03:55:15;100518.19;;;0.79;77.91
77124;BME280;66079;47.646;19.130;2023-03-03T03:58:19;100523.84;;;0.83;77.84
77124;BME280;66079;47.646;19.130;2023-03-03T04:01:28;100517.13;;;0.82;78.10
77124;BME280;66079;47.646;19.130;2023-03-03T04:04:32;100510.91;;;0.84;77.96
77124;BME280;66079;47.646;19.130;2023-03-03T04:07:34;100520.34;;;0.93;78.00
77124;BME280;66079;47.646;19.130;2023-03-03T04:10:38;100522.50;;;0.88;77.88
77124;BME280;66079;47.646;19.130;2023-03-03T04:13:41;100521.16;;;0.75;78.79
77124;BME280;66079;47.646;19.130;2023-03-03T04:16:44;100517.50;;;0.68;78.95
77124;BME280;66079;47.646;19.130;2023-03-03T04:19:47;100514.81;;;0.60;79.79
77124;BME280;66079;47.646;19.130;2023-03-03T04:22:51;100519.94;;;0.60;79.94
77124;BME280;66079;47.646;19.130;2023-03-03T04:25:53;100515.22;;;0.65;80.00
77124;BME280;66079;47.646;19.130;2023-03-03T04:28:57;100527.59;;;0.69;80.35
77124;BME280;66079;47.646;19.130;2023-03-03T04:32:00;100524.78;;;0.63;80.29
77124;BME280;66079;47.646;19.130;2023-03-03T04:35:03;100523.16;;;0.62;80.27
77124;BME280;66079;47.646;19.130;2023-03-03T04:38:13;100528.16;;;0.63;80.51
77124;BME280;66079;47.646;19.130;2023-03-03T04:41:16;100517.91;;;0.54;80.44
77124;BME280;66079;47.646;19.130;2023-03-03T04:44:19;100517.91;;;0.54;80.30
77124;BME280;66079;47.646;19.130;2023-03-03T04:47:24;100505.50;;;0.40;80.68
77124;BME280;66079;47.646;19.130;2023-03-03T04:50:27;100517.78;;;0.46;80.49
77124;BME280;66079;47.646;19.130;2023-03-03T04:53:30;100518.72;;;0.45;80.92
77124;BME280;66079;47.646;19.130;2023-03-03T04:56:32;100500.53;;;0.38;80.33
77124;BME280;66079;47.646;19.130;2023-03-03T04:59:36;100502.94;;;0.30;81.04
77124;BME280;66079;47.646;19.130;2023-03-03T05:02:39;100510.34;;;0.33;81.37
77124;BME280;66079;47.646;19.130;2023-03-03T05:05:42;100505.22;;;0.33;80.90
77124;BME280;66079;47.646;19.130;2023-03-03T05:08:45;100499.06;;;0.26;80.92
77124;BME280;66079;47.646;19.130;2023-03-03T05:11:48;100514.53;;;0.34;81.06
77124;BME280;66079;47.646;19.130;2023-03-03T05:14:50;100510.75;;;0.29;80.67
77124;BME280;66079;47.646;19.130;2023-03-03T05:17:53;100517.59;;;0.28;81.04
77124;BME280;66079;47.646;19.130;2023-03-03T05:20:58;100502.50;;;0.06;81.63
77124;BME280;66079;47.646;19.130;2023-03-03T05:24:00;100506.81;;;0.06;81.33
77124;BME280;66079;47.646;19.130;2023-03-03T05:27:03;100509.00;;;0.20;81.15
77124;BME280;66079;47.646;19.130;2023-03-03T05:30:06;100519.38;;;0.28;81.06
77124;BME280;66079;47.646;19.130;2023-03-03T05:33:11;100498.50;;;0.23;81.83
77124;BME280;66079;47.646;19.130;2023-03-03T05:36:14;100520.44;;;0.35;81.56
77124;BME280;66079;47.646;19.130;2023-03-03T05:39:17;100501.75;;;0.25;81.70
77124;BME280;66079;47.646;19.130;2023-03-03T05:42:19;100519.25;;;0.39;81.42
77124;BME280;66079;47.646;19.130;2023-03-03T05:45:23;100513.72;;;0.34;81.74
77124;BME280;66079;47.646;19.130;2023-03-03T05:48:26;100514.53;;;0.44;82.02
77124;BME280;66079;47.646;19.130;2023-03-03T05:51:29;100515.09;;;0.38;82.45
77124;BME280;66079;47.646;19.130;2023-03-03T05:54:32;100506.06;;;0.34;81.75
77124;BME280;66079;47.646;19.130;2023-03-03T05:57:34;100512.94;;;0.43;81.48
77124;BME280;66079;47.646;19.130;2023-03-03T06:00:37;100516.84;;;0.47;81.89
77124;BME280;66079;47.646;19.130;2023-03-03T06:03:39;100531.75;;;0.51;81.96
77124;BME280;66079;47.646;19.130;2023-03-03T06:06:42;100507.41;;;0.47;82.30
77124;BME280;66079;47.646;19.130;2023-03-03T06:09:45;100532.59;;;0.71;80.97
77124;BME280;66079;47.646;19.130;2023-03-03T06:12:47;100540.16;;;0.82;81.25
77124;BME280;66079;47.646;19.130;2023-03-03T06:15:50;100540.69;;;0.95;80.79
77124;BME280;66079;47.646;19.130;2023-03-03T06:18:52;100532.03;;;0.96;81.12
77124;BME280;66079;47.646;19.130;2023-03-03T06:21:55;100540.78;;;1.12;80.46
77124;BME280;66079;47.646;19.130;2023-03-03T06:24:59;100537.72;;;0.99;81.50
77124;BME280;66079;47.646;19.130;2023-03-03T06:28:02;100554.53;;;1.11;81.11
77124;BME280;66079;47.646;19.130;2023-03-03T06:31:05;100557.63;;;1.24;80.13
77124;BME280;66079;47.646;19.130;2023-03-03T06:34:08;100550.59;;;1.26;79.89
77124;BME280;66079;47.646;19.130;2023-03-03T06:37:10;100532.56;;;1.28;79.83
77124;BME280;66079;47.646;19.130;2023-03-03T06:40:13;100549.56;;;1.66;79.01
77124;BME280;66079;47.646;19.130;2023-03-03T06:43:15;100526.53;;;1.56;78.16
77124;BME280;66079;47.646;19.130;2023-03-03T06:46:18;100559.50;;;1.78;77.96
77124;BME280;66079;47.646;19.130;2023-03-03T06:49:21;100553.59;;;1.68;77.83
77124;BME280;66079;47.646;19.130;2023-03-03T06:52:25;100560.47;;;1.68;78.02
77124;BME280;66079;47.646;19.130;2023-03-03T06:55:28;100552.81;;;1.58;77.60
77124;BME280;66079;47.646;19.130;2023-03-03T06:58:33;100558.06;;;1.66;78.24
77124;BME280;66079;47.646;19.130;2023-03-03T07:01:37;100554.66;;;2.02;77.69
77124;BME280;66079;47.646;19.130;2023-03-03T07:04:40;100552.63;;;2.33;76.91
77124;BME280;66079;47.646;19.130;2023-03-03T07:07:43;100541.19;;;2.27;77.37
77124;BME280;66079;47.646;19.130;2023-03-03T07:10:47;100558.00;;;2.57;76.76
77124;BME280;66079;47.646;19.130;2023-03-03T07:13:53;100563.66;;;2.60;76.75
77124;BME280;66079;47.646;19.130;2023-03-03T07:16:59;100566.59;;;2.83;76.91
77124;BME280;66079;47.646;19.130;2023-03-03T07:20:13;100575.31;;;3.08;76.45
77124;BME280;66079;47.646;19.130;2023-03-03T07:23:40;100575.81;;;3.29;75.77
77124;BME280;66079;47.646;19.130;2023-03-03T07:26:46;100574.50;;;3.25;75.89
77124;BME280;66079;47.646;19.130;2023-03-03T07:29:50;100574.91;;;3.38;75.53
77124;BME280;66079;47.646;19.130;2023-03-03T07:32:56;100568.06;;;3.46;75.07
77124;BME280;66079;47.646;19.130;2023-03-03T07:36:01;100568.41;;;3.77;74.42
77124;BME280;66079;47.646;19.130;2023-03-03T07:39:24;100580.41;;;3.94;73.97
77124;BME280;66079;47.646;19.130;2023-03-03T07:42:39;100562.72;;;3.99;73.76
77124;BME280;66079;47.646;19.130;2023-03-03T07:45:50;100571.31;;;4.16;72.88
77124;BME280;66079;47.646;19.130;2023-03-03T07:48:54;100562.19;;;4.29;72.23
77124;BME280;66079;47.646;19.130;2023-03-03T07:51:58;100576.44;;;4.57;71.83
77124;BME280;66079;47.646;19.130;2023-03-03T07:55:20;100574.38;;;4.69;71.24
77124;BME280;66079;47.646;19.130;2023-03-03T07:58:36;100571.94;;;4.67;71.44
77124;BME280;66079;47.646;19.130;2023-03-03T08:01:43;100567.31;;;4.79;71.30
77124;BME280;66079;47.646;19.130;2023-03-03T08:04:48;100559.91;;;4.84;71.10
77124;BME280;66079;47.646;19.130;2023-03-03T08:11:11;100562.81;;;4.81;72.35
77124;BME280;66079;47.646;19.130;2023-03-03T08:14:15;100566.31;;;4.80;72.98
77124;BME280;66079;47.646;19.130;2023-03-03T08:17:23;100570.03;;;4.93;72.82
77124;BME280;66079;47.646;19.130;2023-03-03T08:23:30;100574.41;;;5.33;72.09
77124;BME280;66079;47.646;19.130;2023-03-03T08:26:32;100567.94;;;5.45;71.18
77124;BME280;66079;47.646;19.130;2023-03-03T08:29:35;100582.19;;;5.80;70.60
77124;BME280;66079;47.646;19.130;2023-03-03T08:32:37;100571.88;;;5.96;69.74
77124;BME280;66079;47.646;19.130;2023-03-03T08:35:40;100569.88;;;6.14;69.34
77124;BME280;66079;47.646;19.130;2023-03-03T08:38:43;100576.31;;;6.18;69.01
77124;BME280;66079;47.646;19.130;2023-03-03T08:41:46;100575.22;;;6.43;68.69
77124;BME280;66079;47.646;19.130;2023-03-03T08:44:50;100568.53;;;6.56;68.37
77124;BME280;66079;47.646;19.130;2023-03-03T08:47:53;100571.94;;;6.80;67.67
77124;BME280;66079;47.646;19.130;2023-03-03T08:50:57;100571.38;;;6.92;67.35
77124;BME280;66079;47.646;19.130;2023-03-03T08:54:00;100570.38;;;7.16;66.91
77124;BME280;66079;47.646;19.130;2023-03-03T08:57:03;100551.88;;;7.41;66.39
77124;BME280;66079;47.646;19.130;2023-03-03T09:00:07;100552.78;;;7.48;66.04
77124;BME280;66079;47.646;19.130;2023-03-03T09:03:10;100562.06;;;7.72;64.87
77124;BME280;66079;47.646;19.130;2023-03-03T09:06:13;100566.56;;;7.78;65.01
77124;BME280;66079;47.646;19.130;2023-03-03T09:09:15;100560.63;;;7.98;64.26
77124;BME280;66079;47.646;19.130;2023-03-03T09:12:24;100546.66;;;7.93;63.61
77124;BME280;66079;47.646;19.130;2023-03-03T09:15:34;100532.31;;;8.11;62.93
77124;BME280;66079;47.646;19.130;2023-03-03T09:18:37;100555.09;;;8.31;62.95
77124;BME280;66079;47.646;19.130;2023-03-03T09:21:40;100556.72;;;8.53;62.06
77124;BME280;66079;47.646;19.130;2023-03-03T09:24:45;100551.94;;;8.71;61.28
77124;BME280;66079;47.646;19.130;2023-03-03T09:27:48;100555.09;;;8.87;60.83
77124;BME280;66079;47.646;19.130;2023-03-03T09:31:00;100553.25;;;8.81;60.89
77124;BME280;66079;47.646;19.130;2023-03-03T09:34:15;100552.56;;;8.94;60.45
77124;BME280;66079;47.646;19.130;2023-03-03T09:37:28;100534.44;;;9.21;59.62
77124;BME280;66079;47.646;19.130;2023-03-03T09:40:52;100541.19;;;9.43;58.82
77124;BME280;66079;47.646;19.130;2023-03-03T09:47:50;100552.31;;;9.65;58.88
77124;BME280;66079;47.646;19.130;2023-03-03T09:58:03;100533.50;;;9.97;57.83
77124;BME280;66079;47.646;19.130;2023-03-03T10:04:52;100533.75;;;11.67;52.71
77124;BME280;66079;47.646;19.130;2023-03-03T10:08:20;100527.81;;;12.42;50.21
77124;BME280;66079;47.646;19.130;2023-03-03T10:21:46;100523.00;;;16.42;40.03
77124;BME280;66079;47.646;19.130;2023-03-03T10:25:07;100523.41;;;16.34;39.67
77124;BME280;66079;47.646;19.130;2023-03-03T10:32:15;100518.00;;;18.42;35.42
77124;BME280;66079;47.646;19.130;2023-03-03T10:35:45;100511.75;;;19.53;33.51
77124;BME280;66079;47.646;19.130;2023-03-03T10:49:19;100496.84;;;19.84;32.62
77124;BME280;66079;47.646;19.130;2023-03-03T10:52:30;100501.34;;;22.33;28.26
77124;BME280;66079;47.646;19.130;2023-03-03T10:55:53;100477.16;;;21.37;29.64
77124;BME280;66079;47.646;19.130;2023-03-03T11:02:48;100474.22;;;18.36;34.06
77124;BME280;66079;47.646;19.130;2023-03-03T11:05:54;100479.34;;;18.75;32.50
77124;BME280;66079;47.646;19.130;2023-03-03T11:12:40;100475.53;;;18.07;34.59
77124;BME280;66079;47.646;19.130;2023-03-03T11:22:51;100456.69;;;21.63;28.05
77124;BME280;66079;47.646;19.130;2023-03-03T11:35:45;100440.22;;;20.17;29.54
77124;BME280;66079;47.646;19.130;2023-03-03T11:38:57;100427.38;;;19.07;30.77
77124;BME280;66079;47.646;19.130;2023-03-03T11:42:10;100431.47;;;20.06;29.34
77124;BME280;66079;47.646;19.130;2023-03-03T11:45:20;100431.97;;;18.80;31.09
77124;BME280;66079;47.646;19.130;2023-03-03T11:52:21;100427.84;;;14.76;39.38
77124;BME280;66079;47.646;19.130;2023-03-03T11:55:34;100423.13;;;15.24;38.61
77124;BME280;66079;47.646;19.130;2023-03-03T11:58:44;100425.84;;;16.86;37.18
77124;BME280;66079;47.646;19.130;2023-03-03T12:01:53;100414.94;;;17.76;35.38
77124;BME280;66079;47.646;19.130;2023-03-03T12:05:30;100416.69;;;19.90;31.40
77124;BME280;66079;47.646;19.130;2023-03-03T12:12:23;100418.91;;;22.06;27.63
77124;BME280;66079;47.646;19.130;2023-03-03T12:19:09;100401.19;;;24.97;23.27
77124;BME280;66079;47.646;19.130;2023-03-03T12:25:43;100406.63;;;26.17;21.87
77124;BME280;66079;47.646;19.130;2023-03-03T12:45:54;100394.72;;;27.80;18.17
77124;BME280;66079;47.646;19.130;2023-03-03T12:48:58;100409.13;;;25.64;20.24
77124;BME280;66079;47.646;19.130;2023-03-03T12:52:28;100396.34;;;25.53;19.75
77124;BME280;66079;47.646;19.130;2023-03-03T12:59:10;100392.28;;;25.55;19.69
77124;BME280;66079;47.646;19.130;2023-03-03T13:02:40;100389.91;;;24.27;21.21
77124;BME280;66079;47.646;19.130;2023-03-03T13:06:03;100388.84;;;24.09;21.68
77124;BME280;66079;47.646;19.130;2023-03-03T13:15:51;100369.19;;;20.05;26.44
77124;BME280;66079;47.646;19.130;2023-03-03T13:19:04;100369.66;;;17.47;31.01
77124;BME280;66079;47.646;19.130;2023-03-03T13:22:16;100369.06;;;17.88;31.13
77124;BME280;66079;47.646;19.130;2023-03-03T13:25:32;100372.56;;;17.29;31.42
77124;BME280;66079;47.646;19.130;2023-03-03T13:31:59;100361.28;;;16.69;31.81
77124;BME280;66079;47.646;19.130;2023-03-03T13:35:06;100346.69;;;17.16;31.32
77124;BME280;66079;47.646;19.130;2023-03-03T13:38:21;100347.34;;;17.28;31.34
77124;BME280;66079;47.646;19.130;2023-03-03T13:41:30;100341.41;;;17.59;30.68
77124;BME280;66079;47.646;19.130;2023-03-03T13:44:40;100349.53;;;17.79;30.94
77124;BME280;66079;47.646;19.130;2023-03-03T13:48:17;100362.06;;;17.99;30.84
77124;BME280;66079;47.646;19.130;2023-03-03T13:51:48;100359.63;;;17.92;30.74
77124;BME280;66079;47.646;19.130;2023-03-03T13:58:30;100360.47;;;17.71;31.14
77124;BME280;66079;47.646;19.130;2023-03-03T14:07:58;100332.22;;;17.57;31.47
77124;BME280;66079;47.646;19.130;2023-03-03T14:11:18;100345.22;;;18.31;30.21
77124;BME280;66079;47.646;19.130;2023-03-03T14:14:46;100338.72;;;18.81;29.11
77124;BME280;66079;47.646;19.130;2023-03-03T14:18:28;100340.16;;;19.95;27.35
77124;BME280;66079;47.646;19.130;2023-03-03T14:21:40;100327.69;;;20.71;26.39
77124;BME280;66079;47.646;19.130;2023-03-03T14:24:59;100334.91;;;18.25;30.12
77124;BME280;66079;47.646;19.130;2023-03-03T14:28:11;100335.66;;;16.76;32.80
77124;BME280;66079;47.646;19.130;2023-03-03T14:31:23;100335.78;;;16.48;33.83
77124;BME280;66079;47.646;19.130;2023-03-03T14:34:35;100326.63;;;18.80;29.63
77124;BME280;66079;47.646;19.130;2023-03-03T14:37:44;100334.63;;;21.79;25.54
77124;BME280;66079;47.646;19.130;2023-03-03T14:40:48;100339.00;;;18.84;29.18
77124;BME280;66079;47.646;19.130;2023-03-03T14:44:20;100339.38;;;15.80;33.94
77124;BME280;66079;47.646;19.130;2023-03-03T14:47:24;100332.38;;;14.79;36.19
77124;BME280;66079;47.646;19.130;2023-03-03T14:50:41;100338.53;;;14.73;36.61
77124;BME280;66079;47.646;19.130;2023-03-03T14:53:46;100331.97;;;14.06;38.08
77124;BME280;66079;47.646;19.130;2023-03-03T15:00:31;100345.59;;;14.08;38.58
77124;BME280;66079;47.646;19.130;2023-03-03T15:03:34;100327.97;;;13.92;38.64
77124;BME280;66079;47.646;19.130;2023-03-03T15:06:42;100328.94;;;13.68;39.28
77124;BME280;66079;47.646;19.130;2023-03-03T15:09:49;100336.69;;;13.26;39.81
77124;BME280;66079;47.646;19.130;2023-03-03T15:12:51;100345.06;;;13.28;40.52
77124;BME280;66079;47.646;19.130;2023-03-03T15:16:22;100346.97;;;13.40;40.53
77124;BME280;66079;47.646;19.130;2023-03-03T15:23:13;100338.78;;;13.18;40.66
77124;BME280;66079;47.646;19.130;2023-03-03T15:33:21;100334.59;;;12.74;41.28
77124;BME280;66079;47.646;19.130;2023-03-03T15:36:39;100330.81;;;12.52;41.47
77124;BME280;66079;47.646;19.130;2023-03-03T15:43:26;100344.06;;;12.26;42.07
77124;BME280;66079;47.646;19.130;2023-03-03T15:56:44;100340.78;;;11.81;42.14
77124;BME280;66079;47.646;19.130;2023-03-03T16:03:46;100356.53;;;11.49;43.14
77124;BME280;66079;47.646;19.130;2023-03-03T16:07:11;100357.41;;;11.30;42.74
77124;BME280;66079;47.646;19.130;2023-03-03T16:10:22;100355.47;;;11.12;43.15
77124;BME280;66079;47.646;19.130;2023-03-03T16:13:39;100361.50;;;11.06;43.63
77124;BME280;66079;47.646;19.130;2023-03-03T16:23:30;100364.00;;;10.55;44.74
77124;BME280;66079;47.646;19.130;2023-03-03T16:26:52;100377.97;;;10.41;44.55
77124;BME280;66079;47.646;19.130;2023-03-03T16:33:26;100376.78;;;10.11;44.26
77124;BME280;66079;47.646;19.130;2023-03-03T16:40:01;100382.25;;;9.89;44.55
77124;BME280;66079;47.646;19.130;2023-03-03T16:43:21;100390.22;;;9.74;44.32
77124;BME280;66079;47.646;19.130;2023-03-03T16:46:37;100367.41;;;9.57;44.18
77124;BME280;66079;47.646;19.130;2023-03-03T16:49:52;100391.38;;;9.59;44.58
77124;BME280;66079;47.646;19.130;2023-03-03T16:56:32;100398.31;;;9.45;45.01
77124;BME280;66079;47.646;19.130;2023-03-03T16:59:58;100402.66;;;9.38;45.36
77124;BME280;66079;47.646;19.130;2023-03-03T17:06:54;100389.97;;;9.15;45.96
77124;BME280;66079;47.646;19.130;2023-03-03T17:10:02;100405.53;;;9.15;46.59
77124;BME280;66079;47.646;19.130;2023-03-03T17:17:10;100405.78;;;8.93;47.29
77124;BME280;66079;47.646;19.130;2023-03-03T17:20:46;100407.69;;;8.78;48.05
77124;BME280;66079;47.646;19.130;2023-03-03T17:23:59;100401.81;;;8.69;48.51
77124;BME280;66079;47.646;19.130;2023-03-03T17:27:27;100407.34;;;8.60;48.94
77124;BME280;66079;47.646;19.130;2023-03-03T17:44:19;100398.19;;;8.00;50.74
77124;BME280;66079;47.646;19.130;2023-03-03T17:54:51;100404.19;;;8.01;50.69
77124;BME280;66079;47.646;19.130;2023-03-03T17:58:05;100412.19;;;8.06;50.29
77124;BME280;66079;47.646;19.130;2023-03-03T18:01:25;100417.97;;;7.87;51.40
77124;BME280;66079;47.646;19.130;2023-03-03T18:05:12;100420.56;;;7.72;51.72
77124;BME280;66079;47.646;19.130;2023-03-03T18:21:57;100400.56;;;7.31;53.37
77124;BME280;66079;47.646;19.130;2023-03-03T18:25:19;100409.47;;;7.28;53.21
77124;BME280;66079;47.646;19.130;2023-03-03T18:28:45;100421.41;;;7.29;53.54
77124;BME280;66079;47.646;19.130;2023-03-03T18:38:30;100409.38;;;6.93;54.58
77124;BME280;66079;47.646;19.130;2023-03-03T18:42:03;100417.59;;;6.96;54.85
77124;BME280;66079;47.646;19.130;2023-03-03T18:48:44;100423.78;;;6.72;56.30
77124;BME280;66079;47.646;19.130;2023-03-03T18:51:49;100413.78;;;6.55;56.44
77124;BME280;66079;47.646;19.130;2023-03-03T18:55:19;100408.94;;;6.29;57.38
77124;BME280;66079;47.646;19.130;2023-03-03T18:58:37;100425.25;;;6.30;57.24
77124;BME280;66079;47.646;19.130;2023-03-03T19:01:43;100421.13;;;6.43;56.49
77124;BME280;66079;47.646;19.130;2023-03-03T19:08:42;100433.97;;;6.29;57.67
77124;BME280;66079;47.646;19.130;2023-03-03T19:11:53;100433.59;;;6.09;58.80
77124;BME280;66079;47.646;19.130;2023-03-03T19:14:57;100432.28;;;6.13;57.95
77124;BME280;66079;47.646;19.130;2023-03-03T19:18:22;100432.34;;;6.05;57.97
77124;BME280;66079;47.646;19.130;2023-03-03T19:21:31;100428.00;;;6.06;57.60
77124;BME280;66079;47.646;19.130;2023-03-03T19:24:36;100422.97;;;6.12;56.53
77124;BME280;66079;47.646;19.130;2023-03-03T19:27:54;100435.22;;;6.33;56.25
77124;BME280;66079;47.646;19.130;2023-03-03T19:31:06;100429.13;;;6.26;56.14
77124;BME280;66079;47.646;19.130;2023-03-03T19:41:28;100449.78;;;6.26;56.26
77124;BME280;66079;47.646;19.130;2023-03-03T19:47:56;100447.13;;;6.11;55.97
77124;BME280;66079;47.646;19.130;2023-03-03T19:51:21;100448.06;;;5.96;57.43
77124;BME280;66079;47.646;19.130;2023-03-03T19:58:10;100452.41;;;5.48;59.63
77124;BME280;66079;47.646;19.130;2023-03-03T20:14:50;100432.59;;;4.54;62.41
77124;BME280;66079;47.646;19.130;2023-03-03T20:51:31;100440.94;;;4.16;64.34
77124;BME280;66079;47.646;19.130;2023-03-03T21:01:33;100474.66;;;4.05;65.55
77124;BME280;66079;47.646;19.130;2023-03-03T21:04:37;100463.06;;;3.93;65.41
77124;BME280;66079;47.646;19.130;2023-03-03T21:08:10;100471.44;;;3.95;65.86
77124;BME280;66079;47.646;19.130;2023-03-03T21:11:18;100466.25;;;3.79;66.33
77124;BME280;66079;47.646;19.130;2023-03-03T21:14:28;100475.56;;;3.88;65.69
77124;BME280;66079;47.646;19.130;2023-03-03T21:17:30;100462.69;;;3.80;66.29
77124;BME280;66079;47.646;19.130;2023-03-03T21:20:34;100472.06;;;3.89;66.32
77124;BME280;66079;47.646;19.130;2023-03-03T21:23:37;100468.84;;;3.87;65.92
77124;BME280;66079;47.646;19.130;2023-03-03T21:30:20;100463.97;;;3.76;65.88
77124;BME280;66079;47.646;19.130;2023-03-03T21:33:52;100472.78;;;3.73;66.29
77124;BME280;66079;47.646;19.130;2023-03-03T21:36:57;100462.94;;;3.61;66.51
77124;BME280;66079;47.646;19.130;2023-03-03T21:40:26;100483.69;;;3.67;66.99